createdAt,value
2023-04-24T00:00:59.907Z,8.80
2023-04-24T00:06:01.913Z,8.65
2023-04-24T00:11:04.137Z,10.15
2023-04-24T00:16:06.195Z,8.90
2023-04-24T00:21:08.048Z,9.80
2023-04-24T00:26:09.451Z,8.93
2023-04-24T00:31:10.924Z,8.82
2023-04-24T00:36:12.257Z,10.02
2023-04-24T00:41:13.858Z,10.98
2023-04-24T00:46:15.609Z,10.82
2023-04-24T00:51:17.048Z,10.55
2023-04-24T00:56:19.323Z,11.18
2023-04-24T01:01:21.925Z,9.88
2023-04-24T01:06:23.425Z,9.70
2023-04-24T01:11:25.527Z,10.20
2023-04-24T01:16:27.067Z,10.98
2023-04-24T01:21:31.011Z,10.48
2023-04-24T01:26:32.526Z,10.30
2023-04-24T01:31:34.267Z,10.82
2023-04-24T01:36:36.059Z,10.50
2023-04-24T01:41:37.897Z,10.98
2023-04-24T01:46:39.351Z,10.50
2023-04-24T01:51:40.707Z,10.10
2023-04-24T01:56:43.517Z,9.90
2023-04-24T02:01:44.910Z,9.35
2023-04-24T02:06:46.312Z,9.18
2023-04-24T02:11:47.655Z,9.57
2023-04-24T02:16:49.161Z,9.30
2023-04-24T02:21:51.377Z,8.38
2023-04-24T02:26:52.770Z,9.05
2023-04-24T02:31:54.188Z,9.65
2023-04-24T02:36:55.881Z,9.15
2023-04-24T02:41:57.243Z,8.93
2023-04-24T02:46:58.562Z,9.48
2023-04-24T02:51:59.875Z,9.82
2023-04-24T02:57:02.242Z,9.30
2023-04-24T03:02:03.730Z,9.30
2023-04-24T03:07:05.528Z,9.30
2023-04-24T03:12:07.026Z,8.23
2023-04-24T03:17:08.364Z,8.38
2023-04-24T03:22:10.259Z,8.00
2023-04-24T03:27:11.625Z,7.85
2023-04-24T03:32:12.971Z,7.18
2023-04-24T03:37:14.346Z,6.65
2023-04-24T03:42:16.191Z,6.63
2023-04-24T03:47:17.561Z,5.03
2023-04-24T03:52:18.970Z,4.85
2023-04-24T03:57:20.314Z,4.40
2023-04-24T04:02:21.685Z,3.42
2023-04-24T04:07:23.136Z,3.53
2023-04-24T04:12:24.531Z,3.50
2023-04-24T04:17:26.110Z,3.78
2023-04-24T04:22:27.498Z,3.83
2023-04-24T04:27:29.976Z,5.38
2023-04-24T04:32:34.922Z,4.50
2023-04-24T04:37:36.507Z,4.32
2023-04-24T04:42:41.135Z,4.00
2023-04-24T04:47:43.299Z,4.30
2023-04-24T04:52:44.660Z,4.60
2023-04-24T04:57:46.278Z,4.75
2023-04-24T05:02:47.756Z,5.13
2023-04-24T05:07:49.235Z,4.50
2023-04-24T05:12:50.649Z,4.35
2023-04-24T05:17:52.235Z,4.43
2023-04-24T05:22:53.594Z,3.88
2023-04-24T05:27:55.025Z,4.10
2023-04-24T05:32:56.403Z,3.90
2023-04-24T05:37:58.058Z,4.53
2023-04-24T05:42:59.373Z,4.70
2023-04-24T05:48:00.732Z,4.82
2023-04-24T05:53:05.567Z,4.53
2023-04-24T05:58:07.072Z,5.35
2023-04-24T06:03:08.931Z,5.30
2023-04-24T06:08:10.820Z,4.95
2023-04-24T06:13:12.226Z,5.13
2023-04-24T06:18:13.697Z,4.75
2023-04-24T06:23:15.107Z,4.60
2023-04-24T06:28:16.468Z,4.80
2023-04-24T06:33:21.268Z,4.47
2023-04-24T06:38:23.710Z,4.68
2023-04-24T06:43:25.117Z,4.22
2023-04-24T06:48:27.061Z,3.42
2023-04-24T06:53:28.663Z,4.18
2023-04-24T06:58:31.361Z,3.83
2023-04-24T07:03:32.980Z,4.65
2023-04-24T07:08:34.593Z,3.90
2023-04-24T07:13:36.494Z,3.97
2023-04-24T07:18:38.407Z,4.50
2023-04-24T07:23:39.845Z,4.38
2023-04-24T07:28:41.557Z,5.18
2023-04-24T07:33:42.951Z,3.92
2023-04-24T07:38:44.376Z,4.25
2023-04-24T07:43:45.723Z,5.47
2023-04-24T07:48:50.028Z,3.92
2023-04-24T07:53:57.175Z,4.15
2023-04-24T07:58:58.671Z,5.05
2023-04-24T08:04:00.273Z,4.75
2023-04-24T08:09:01.796Z,4.57
2023-04-24T08:14:03.124Z,4.75
2023-04-24T08:19:04.574Z,5.15
2023-04-24T08:24:08.870Z,4.63
2023-04-24T08:29:10.330Z,4.47
2023-04-24T08:34:11.699Z,4.70
2023-04-24T08:39:13.254Z,5.18
2023-04-24T08:44:16.704Z,4.60
2023-04-24T08:49:18.558Z,4.77
2023-04-24T08:54:20.268Z,4.55
2023-04-24T08:59:22.250Z,4.22
2023-04-24T09:04:25.820Z,4.80
2023-04-24T09:09:30.748Z,3.70
2023-04-24T09:19:34.262Z,4.65
2023-04-24T09:24:35.992Z,4.40
2023-04-24T09:29:37.376Z,4.80
2023-04-24T09:34:38.703Z,4.78
2023-04-24T09:39:40.829Z,5.85
2023-04-24T09:44:42.529Z,6.15
2023-04-24T09:49:45.004Z,6.38
2023-04-24T09:54:53.460Z,6.93
2023-04-24T09:59:54.882Z,6.97
2023-04-24T10:04:57.649Z,7.68
2023-04-24T10:09:59.517Z,7.13
2023-04-24T10:15:02.722Z,7.75
2023-04-24T10:20:04.866Z,7.47
2023-04-24T10:25:06.760Z,7.28
2023-04-24T10:30:08.728Z,6.97
2023-04-24T10:35:11.182Z,6.13
2023-04-24T10:40:13.129Z,6.43
2023-04-24T10:45:22.735Z,6.55
2023-04-24T10:50:24.279Z,5.93
2023-04-24T10:55:45.788Z,6.15
2023-04-24T11:00:55.897Z,6.70
2023-04-24T11:05:59.066Z,6.95
2023-04-24T11:11:04.872Z,7.50
2023-04-24T11:16:25.380Z,6.65
2023-04-24T11:21:32.345Z,6.63
2023-04-24T11:26:37.731Z,7.07
2023-04-24T11:31:40.375Z,6.75
2023-04-24T11:36:45.949Z,5.95
2023-04-24T11:41:47.803Z,6.30
2023-04-24T11:46:49.187Z,7.13
2023-04-24T11:51:53.486Z,7.10
2023-04-24T11:56:57.011Z,7.05
2023-04-24T12:01:58.372Z,6.13
2023-04-24T12:07:00.134Z,6.53
2023-04-24T12:12:02.055Z,7.15
2023-04-24T12:17:04.198Z,6.13
2023-04-24T12:22:06.975Z,6.85
2023-04-24T12:27:10.025Z,6.93
2023-04-24T12:32:17.705Z,6.60
2023-04-24T12:37:19.249Z,6.72
2023-04-24T12:42:26.895Z,6.57
2023-04-24T12:47:29.147Z,5.97
2023-04-24T12:52:31.045Z,6.82
2023-04-24T12:57:32.542Z,6.57
2023-04-24T13:02:34.975Z,7.15
2023-04-24T13:07:36.758Z,7.28
2023-04-24T13:12:38.435Z,7.60
2023-04-24T13:17:39.853Z,7.47
2023-04-24T13:22:41.267Z,7.57
2023-04-24T13:27:42.592Z,8.52
2023-04-24T13:32:44.103Z,7.25
2023-04-24T13:37:45.808Z,6.30
2023-04-24T13:42:47.242Z,6.97
2023-04-24T13:47:50.247Z,7.72
2023-04-24T13:52:53.421Z,6.88
2023-04-24T13:57:56.117Z,7.90
2023-04-24T14:02:57.791Z,9.02
2023-04-24T14:07:59.294Z,9.18
2023-04-24T14:13:01.059Z,9.48
2023-04-24T14:18:04.938Z,8.63
2023-04-24T14:23:07.563Z,4.38
2023-04-24T14:28:10.065Z,3.25
2023-04-24T14:33:11.685Z,3.92
2023-04-24T14:38:13.046Z,2.33
2023-04-24T14:43:14.434Z,3.63
2023-04-24T14:48:17.439Z,2.10
2023-04-24T14:53:19.599Z,1.63
2023-04-24T14:58:20.969Z,1.30
2023-04-24T15:03:23.118Z,1.15
2023-04-24T15:08:24.973Z,1.48
2023-04-24T15:13:26.814Z,1.67
2023-04-24T15:18:29.761Z,4.15
2023-04-24T15:23:31.104Z,6.57
2023-04-24T15:28:32.650Z,7.20
2023-04-24T15:33:34.101Z,7.18
2023-04-24T15:38:35.553Z,8.20
2023-04-24T15:43:37.031Z,5.80
2023-04-24T15:48:41.336Z,5.47
2023-04-24T15:53:42.752Z,4.70
2023-04-24T15:58:44.255Z,5.57
2023-04-24T16:03:46.593Z,5.50
2023-04-24T16:08:48.315Z,5.53
2023-04-24T16:13:49.977Z,5.15
2023-04-24T16:18:53.965Z,5.60
2023-04-24T16:23:55.354Z,7.25
2023-04-24T16:28:56.852Z,7.90
2023-04-24T16:33:58.251Z,10.98
2023-04-24T16:39:01.093Z,10.90
2023-04-24T16:44:02.499Z,9.65
2023-04-24T16:49:03.882Z,9.18
2023-04-24T16:54:05.259Z,9.55
2023-04-24T16:59:08.091Z,7.25
2023-04-24T17:04:09.550Z,7.65
2023-04-24T17:09:12.991Z,7.27
2023-04-24T17:14:15.453Z,7.68
2023-04-24T17:19:16.860Z,7.30
2023-04-24T17:24:18.224Z,6.97
2023-04-24T17:29:19.605Z,6.60
2023-04-24T17:34:20.981Z,6.07
2023-04-24T17:39:22.407Z,5.73
2023-04-24T17:44:23.784Z,5.53
2023-04-24T17:49:25.158Z,5.93
2023-04-24T17:54:26.522Z,5.93
2023-04-24T17:59:28.001Z,5.63
2023-04-24T18:04:29.495Z,5.67
2023-04-24T18:09:30.894Z,5.20
2023-04-24T18:14:32.252Z,5.93
2023-04-24T18:19:33.646Z,6.40
2023-04-24T18:24:35.021Z,4.57
2023-04-24T18:29:37.624Z,4.93
2023-04-24T18:34:39.037Z,5.10
2023-04-24T18:39:40.590Z,5.30
2023-04-24T18:44:42.796Z,5.80
2023-04-24T18:49:44.272Z,5.57
2023-04-24T18:54:45.676Z,5.23
2023-04-24T18:59:47.082Z,5.40
2023-04-24T19:04:48.454Z,5.20
2023-04-24T19:09:49.862Z,4.13
2023-04-24T19:14:52.049Z,4.87
2023-04-24T19:19:53.457Z,7.33
2023-04-24T19:24:54.909Z,5.87
2023-04-24T19:29:56.310Z,6.87
2023-04-24T19:34:57.785Z,5.53
2023-04-24T19:39:59.208Z,5.05
2023-04-24T19:45:01.020Z,4.80
2023-04-24T19:50:02.383Z,5.72
2023-04-24T19:55:04.093Z,5.40
2023-04-24T20:00:05.866Z,5.40
2023-04-24T20:05:07.648Z,5.53
2023-04-24T20:10:09.371Z,4.77
2023-04-24T20:15:10.990Z,5.93
2023-04-24T20:20:12.554Z,5.93
2023-04-24T20:25:14.048Z,5.77
2023-04-24T20:30:15.939Z,5.87
2023-04-24T20:35:17.364Z,5.97
2023-04-24T20:40:19.485Z,6.68
2023-04-24T20:45:21.283Z,6.35
2023-04-24T20:50:22.719Z,5.60
2023-04-24T20:55:24.143Z,5.70
2023-04-24T21:00:27.157Z,5.03
2023-04-24T21:05:28.667Z,5.93
2023-04-24T21:10:30.053Z,5.00
2023-04-24T21:15:31.551Z,5.70
2023-04-24T21:20:32.856Z,5.78
2023-04-24T21:25:37.464Z,5.63
2023-04-24T21:35:40.395Z,5.53
2023-04-24T21:40:41.830Z,5.07
2023-04-24T21:45:43.411Z,5.63
2023-04-24T21:50:44.771Z,6.25
2023-04-24T21:55:46.285Z,4.40
2023-04-24T22:00:47.634Z,5.43
2023-04-24T22:05:48.957Z,5.53
2023-04-24T22:10:51.387Z,7.47
2023-04-24T22:15:52.765Z,5.00
2023-04-24T22:20:54.257Z,4.73
2023-04-24T22:25:56.517Z,4.35
2023-04-24T22:30:58.332Z,4.68
2023-04-24T22:35:59.718Z,3.43
2023-04-24T22:41:01.082Z,3.37
2023-04-24T22:46:02.665Z,2.97
2023-04-24T22:51:04.205Z,2.60
2023-04-24T22:56:05.776Z,3.10
2023-04-24T23:01:07.138Z,2.43
2023-04-24T23:06:09.057Z,3.00
2023-04-24T23:11:11.317Z,2.60
2023-04-24T23:16:12.713Z,3.20
2023-04-24T23:21:14.111Z,3.03
2023-04-24T23:26:15.481Z,3.10
2023-04-24T23:31:16.916Z,3.50
2023-04-24T23:36:18.360Z,3.23
2023-04-24T23:41:19.740Z,3.63
2023-04-24T23:46:21.462Z,3.60
2023-04-24T23:51:23.103Z,3.57
2023-04-24T23:56:26.658Z,3.50
